createdAt,value
2023-01-20T00:00:10.149Z,1.60
2023-01-20T00:02:41.278Z,1.60
2023-01-20T00:05:10.084Z,1.70
2023-01-20T00:07:38.150Z,1.70
2023-01-20T00:10:07.361Z,1.70
2023-01-20T00:12:37.098Z,1.80
2023-01-20T00:15:05.783Z,1.80
2023-01-20T00:17:34.143Z,1.80
2023-01-20T00:20:02.590Z,1.80
2023-01-20T00:22:30.823Z,1.80
2023-01-20T00:24:59.054Z,1.80
2023-01-20T00:27:27.091Z,1.80
2023-01-20T00:29:56.693Z,1.70
2023-01-20T00:32:24.739Z,1.60
2023-01-20T00:34:53.180Z,1.40
2023-01-20T00:37:21.194Z,1.40
2023-01-20T00:39:51.737Z,1.40
2023-01-20T00:42:20.145Z,1.50
2023-01-20T00:44:49.120Z,1.40
2023-01-20T00:47:21.112Z,1.50
2023-01-20T00:49:49.534Z,1.40
2023-01-20T00:52:18.879Z,1.30
2023-01-20T00:54:47.063Z,1.10
2023-01-20T00:57:15.437Z,0.80
2023-01-20T00:59:43.463Z,0.60
2023-01-20T01:02:12.129Z,0.50
2023-01-20T01:04:41.665Z,0.30
2023-01-20T01:07:10.274Z,0.30
2023-01-20T01:09:38.303Z,0.30
2023-01-20T01:12:06.737Z,0.40
2023-01-20T01:14:34.812Z,0.50
2023-01-20T01:17:03.069Z,0.50
2023-01-20T01:19:31.108Z,0.60
2023-01-20T01:22:00.740Z,0.60
2023-01-20T01:24:29.045Z,0.50
2023-01-20T01:26:56.989Z,0.60
2023-01-20T01:29:25.701Z,0.60
2023-01-20T01:31:53.933Z,0.60
2023-01-20T01:34:22.389Z,0.60
2023-01-20T01:36:50.507Z,0.60
2023-01-20T01:39:20.290Z,0.70
2023-01-20T01:41:48.323Z,0.80
2023-01-20T01:44:16.456Z,0.70
2023-01-20T01:46:44.604Z,0.80
2023-01-20T01:49:15.366Z,0.70
2023-01-20T01:51:45.501Z,0.70
2023-01-20T01:54:14.820Z,0.80
2023-01-20T01:56:44.769Z,0.90
2023-01-20T01:59:14.639Z,1.00
2023-01-20T02:01:46.080Z,0.90
2023-01-20T02:04:15.595Z,0.90
2023-01-20T02:06:45.324Z,0.90
2023-01-20T02:09:13.612Z,0.80
2023-01-20T02:11:45.281Z,0.80
2023-01-20T02:14:15.581Z,0.70
2023-01-20T02:16:49.902Z,0.60
2023-01-20T02:19:27.581Z,0.60
2023-01-20T02:22:01.576Z,0.70
2023-01-20T02:24:51.956Z,0.60
2023-01-20T02:27:23.924Z,0.50
2023-01-20T02:30:10.131Z,0.60
2023-01-20T02:32:44.937Z,0.60
2023-01-20T02:35:17.228Z,0.50
2023-01-20T02:37:48.100Z,0.40
2023-01-20T02:40:24.411Z,0.30
2023-01-20T02:42:57.711Z,0.20
2023-01-20T02:45:30.720Z,0.10
2023-01-20T02:48:03.280Z,0.00
2023-01-20T02:50:36.517Z,0.00
2023-01-20T02:53:05.673Z,-0.10
2023-01-20T02:55:37.942Z,0.00
2023-01-20T02:58:08.342Z,0.10
2023-01-20T03:00:38.998Z,0.00
2023-01-20T03:03:09.961Z,-0.10
2023-01-20T03:05:41.544Z,-0.10
2023-01-20T03:08:11.645Z,0.00
2023-01-20T03:10:41.956Z,0.00
2023-01-20T03:13:14.588Z,0.00
2023-01-20T03:15:49.205Z,-0.10
2023-01-20T03:18:18.656Z,-0.10
2023-01-20T03:20:46.762Z,-0.10
2023-01-20T03:23:14.850Z,-0.10
2023-01-20T03:25:45.132Z,-0.10
2023-01-20T03:28:14.378Z,-0.10
2023-01-20T03:30:42.726Z,0.00
2023-01-20T03:33:11.789Z,0.00
2023-01-20T03:35:41.560Z,0.00
2023-01-20T03:38:10.288Z,0.00
2023-01-20T03:40:41.522Z,0.10
2023-01-20T03:43:13.642Z,0.10
2023-01-20T03:45:43.302Z,0.20
2023-01-20T03:48:14.881Z,0.20
2023-01-20T03:50:48.436Z,0.20
2023-01-20T03:53:22.721Z,0.20
2023-01-20T03:55:52.773Z,0.20
2023-01-20T03:58:23.432Z,0.20
2023-01-20T04:00:52.402Z,0.10
2023-01-20T04:03:22.559Z,0.00
2023-01-20T04:05:52.292Z,-0.10
2023-01-20T04:08:22.126Z,-0.10
2023-01-20T04:10:51.613Z,-0.10
2023-01-20T04:13:20.475Z,0.00
2023-01-20T04:15:48.694Z,0.00
2023-01-20T04:18:17.852Z,0.00
2023-01-20T04:20:48.034Z,-0.10
2023-01-20T04:23:21.933Z,-0.10
2023-01-20T04:25:50.451Z,0.00
2023-01-20T04:28:18.458Z,-0.10
2023-01-20T04:30:47.175Z,0.00
2023-01-20T04:33:15.271Z,0.00
2023-01-20T04:35:43.549Z,-0.10
2023-01-20T04:38:12.060Z,0.00
2023-01-20T04:40:41.456Z,0.00
2023-01-20T04:43:10.298Z,0.00
2023-01-20T04:45:38.550Z,0.00
2023-01-20T04:48:07.552Z,0.00
2023-01-20T04:50:38.928Z,0.00
2023-01-20T04:53:07.533Z,0.00
2023-01-20T04:55:35.555Z,0.00
2023-01-20T04:58:04.937Z,0.00
2023-01-20T05:00:33.532Z,0.00
2023-01-20T05:03:02.509Z,0.10
2023-01-20T05:05:30.908Z,0.10
2023-01-20T05:08:14.741Z,0.00
2023-01-20T05:10:42.936Z,0.10
2023-01-20T05:13:13.828Z,0.10
2023-01-20T05:15:43.595Z,0.10
2023-01-20T05:18:11.748Z,0.10
2023-01-20T05:20:39.939Z,0.10
2023-01-20T05:23:08.071Z,0.10
2023-01-20T05:25:36.367Z,0.10
2023-01-20T05:28:05.018Z,0.10
2023-01-20T05:30:34.739Z,0.10
2023-01-20T05:33:03.130Z,0.10
2023-01-20T05:35:31.181Z,0.10
2023-01-20T05:37:59.705Z,0.10
2023-01-20T05:40:27.823Z,0.10
2023-01-20T05:42:59.881Z,0.10
2023-01-20T05:45:27.946Z,0.10
2023-01-20T05:47:58.199Z,0.00
2023-01-20T05:50:26.869Z,-0.10
2023-01-20T05:52:55.351Z,-0.10
2023-01-20T05:55:23.387Z,-0.10
2023-01-20T05:57:52.019Z,0.00
2023-01-20T06:00:20.895Z,-0.10
2023-01-20T06:02:49.082Z,0.00
2023-01-20T06:05:19.002Z,0.00
2023-01-20T06:07:47.095Z,0.00
2023-01-20T06:10:15.833Z,0.00
2023-01-20T06:12:44.089Z,0.00
2023-01-20T06:15:13.378Z,0.00
2023-01-20T06:17:41.597Z,0.00
2023-01-20T06:20:11.103Z,0.00
2023-01-20T06:22:40.449Z,0.00
2023-01-20T06:25:08.900Z,0.10
2023-01-20T06:27:37.604Z,0.10
2023-01-20T06:30:05.910Z,0.10
2023-01-20T06:32:35.152Z,0.00
2023-01-20T06:35:03.470Z,-0.10
2023-01-20T06:37:32.048Z,-0.10
2023-01-20T06:40:01.447Z,-0.10
2023-01-20T06:42:32.113Z,-0.10
2023-01-20T06:45:00.201Z,-0.20
2023-01-20T06:47:28.731Z,-0.10
2023-01-20T06:49:56.770Z,-0.10
2023-01-20T06:52:25.376Z,-0.10
2023-01-20T06:54:53.401Z,-0.20
2023-01-20T06:57:23.087Z,-0.20
2023-01-20T06:59:51.738Z,-0.20
2023-01-20T07:02:19.811Z,-0.20
2023-01-20T07:04:48.092Z,-0.20
2023-01-20T07:07:16.141Z,-0.20
2023-01-20T07:09:44.727Z,-0.20
2023-01-20T07:12:12.812Z,-0.20
2023-01-20T07:14:42.566Z,-0.20
2023-01-20T07:17:12.027Z,-0.20
2023-01-20T07:19:40.578Z,-0.20
2023-01-20T07:22:08.663Z,-0.20
2023-01-20T07:24:37.441Z,-0.30
2023-01-20T07:27:05.548Z,-0.30
2023-01-20T07:29:33.900Z,-0.30
2023-01-20T07:32:03.275Z,-0.30
2023-01-20T07:34:31.742Z,-0.30
2023-01-20T07:37:01.567Z,-0.30
2023-01-20T07:39:32.651Z,-0.40
2023-01-20T07:42:00.801Z,-0.40
2023-01-20T07:44:29.120Z,-0.40
2023-01-20T07:47:00.673Z,-0.40
2023-01-20T07:49:30.193Z,-0.40
2023-01-20T07:51:58.350Z,-0.30
2023-01-20T07:54:26.476Z,-0.40
2023-01-20T07:56:54.907Z,-0.30
2023-01-20T07:59:23.126Z,-0.40
2023-01-20T08:01:51.355Z,-0.50
2023-01-20T08:04:19.724Z,-0.50
2023-01-20T08:06:49.210Z,-0.40
2023-01-20T08:09:17.472Z,-0.40
2023-01-20T08:11:45.483Z,-0.50
2023-01-20T08:14:13.744Z,-0.50
2023-01-20T08:16:42.100Z,-0.50
2023-01-20T08:19:12.874Z,-0.50
2023-01-20T08:21:41.350Z,-0.50
2023-01-20T08:24:11.954Z,-0.50
2023-01-20T08:26:40.281Z,-0.40
2023-01-20T08:29:10.080Z,-0.40
2023-01-20T08:31:38.857Z,-0.30
2023-01-20T08:34:07.505Z,-0.30
2023-01-20T08:36:36.466Z,-0.30
2023-01-20T08:39:06.054Z,-0.30
2023-01-20T08:41:37.061Z,-0.30
2023-01-20T08:44:07.126Z,-0.20
2023-01-20T08:46:35.514Z,-0.30
2023-01-20T08:49:03.523Z,-0.30
2023-01-20T08:51:32.679Z,-0.30
2023-01-20T08:54:01.000Z,-0.10
2023-01-20T08:56:29.850Z,-0.20
2023-01-20T08:58:59.337Z,-0.10
2023-01-20T09:01:29.611Z,0.10
2023-01-20T09:04:05.777Z,0.20
2023-01-20T09:06:38.848Z,0.30
2023-01-20T09:09:06.939Z,0.20
2023-01-20T09:11:35.347Z,0.20
2023-01-20T09:14:05.060Z,0.20
2023-01-20T09:16:33.150Z,0.20
2023-01-20T09:19:01.440Z,0.20
2023-01-20T09:21:29.927Z,0.30
2023-01-20T09:23:58.546Z,0.30
2023-01-20T09:26:35.966Z,0.40
2023-01-20T09:29:10.071Z,0.40
2023-01-20T09:31:38.769Z,0.40
2023-01-20T09:34:06.911Z,0.40
2023-01-20T09:36:35.464Z,0.40
2023-01-20T09:39:21.427Z,0.40
2023-01-20T09:42:07.745Z,0.40
2023-01-20T09:44:43.766Z,0.40
2023-01-20T09:47:20.448Z,0.50
2023-01-20T09:50:15.051Z,0.60
2023-01-20T09:53:02.558Z,0.60
2023-01-20T09:55:33.540Z,0.60
2023-01-20T09:58:06.304Z,0.60
2023-01-20T10:00:36.356Z,0.60
2023-01-20T10:03:08.206Z,0.50
2023-01-20T10:05:39.146Z,0.50
2023-01-20T10:08:09.318Z,0.50
2023-01-20T10:10:39.473Z,0.50
2023-01-20T10:13:10.883Z,0.50
2023-01-20T10:15:43.938Z,0.60
2023-01-20T10:18:16.512Z,0.40
2023-01-20T10:20:48.335Z,0.40
2023-01-20T10:23:21.395Z,0.40
2023-01-20T10:25:51.415Z,0.40
2023-01-20T10:28:22.071Z,0.50
2023-01-20T10:30:52.144Z,0.50
2023-01-20T10:33:24.857Z,0.50
2023-01-20T10:35:54.490Z,0.60
2023-01-20T10:38:25.740Z,0.60
2023-01-20T10:40:57.999Z,0.60
2023-01-20T10:43:26.639Z,0.60
2023-01-20T10:46:12.394Z,0.70
2023-01-20T10:48:48.685Z,0.60
2023-01-20T10:51:20.888Z,0.60
2023-01-20T10:53:54.593Z,0.70
2023-01-20T10:56:34.049Z,0.50
2023-01-20T10:59:03.599Z,0.40
2023-01-20T11:01:32.098Z,0.30
2023-01-20T11:04:01.857Z,0.30
2023-01-20T11:06:30.016Z,0.40
2023-01-20T11:08:59.205Z,0.40
2023-01-20T11:11:29.445Z,0.30
2023-01-20T11:13:59.741Z,0.40
2023-01-20T11:16:28.848Z,0.40
2023-01-20T11:18:59.509Z,0.40
2023-01-20T11:21:29.887Z,0.50
2023-01-20T11:23:59.240Z,0.50
2023-01-20T11:26:28.686Z,0.40
2023-01-20T11:28:58.127Z,0.40
2023-01-20T11:31:36.010Z,0.50
2023-01-20T11:34:05.192Z,0.50
2023-01-20T11:36:34.555Z,0.60
2023-01-20T11:39:03.162Z,0.60
2023-01-20T11:41:31.906Z,0.50
2023-01-20T11:44:01.629Z,0.50
2023-01-20T11:46:30.681Z,0.50
2023-01-20T11:49:16.690Z,0.60
2023-01-20T11:51:46.786Z,0.60
2023-01-20T11:54:16.951Z,0.60
2023-01-20T11:56:47.325Z,0.60
2023-01-20T11:59:24.210Z,0.60
2023-01-20T12:01:57.080Z,0.60
2023-01-20T12:04:39.588Z,0.60
2023-01-20T12:07:11.797Z,0.70
2023-01-20T12:09:42.798Z,0.60
2023-01-20T12:12:14.447Z,0.60
2023-01-20T12:14:48.209Z,0.60
2023-01-20T12:17:23.364Z,0.60
2023-01-20T12:19:57.251Z,0.60
2023-01-20T12:22:28.748Z,0.60
2023-01-20T12:25:08.582Z,0.70
2023-01-20T12:27:39.372Z,0.70
2023-01-20T12:30:16.683Z,0.80
2023-01-20T12:32:45.062Z,0.90
2023-01-20T12:35:14.791Z,0.80
2023-01-20T12:37:48.185Z,0.80
2023-01-20T12:40:22.758Z,0.80
2023-01-20T12:43:06.551Z,0.70
2023-01-20T12:45:41.450Z,0.70
2023-01-20T12:48:19.749Z,0.60
2023-01-20T12:50:54.243Z,0.70
2023-01-20T12:53:38.641Z,0.60
2023-01-20T12:56:12.201Z,0.60
2023-01-20T12:58:45.712Z,0.60
2023-01-20T13:01:25.337Z,0.60
2023-01-20T13:04:06.033Z,0.60
2023-01-20T13:06:43.416Z,0.50
2023-01-20T13:09:19.977Z,0.50
2023-01-20T13:11:54.935Z,0.40
2023-01-20T13:14:26.256Z,0.40
2023-01-20T13:16:58.730Z,0.40
2023-01-20T13:19:30.160Z,0.40
2023-01-20T13:22:08.241Z,0.50
2023-01-20T13:24:38.335Z,0.40
2023-01-20T13:27:07.035Z,0.40
2023-01-20T13:29:53.533Z,0.50
2023-01-20T13:32:29.708Z,0.50
2023-01-20T13:34:58.207Z,0.40
2023-01-20T13:37:30.599Z,0.40
2023-01-20T13:40:01.064Z,0.40
2023-01-20T13:42:51.641Z,0.30
2023-01-20T13:45:24.542Z,0.30
2023-01-20T13:47:54.469Z,0.50
2023-01-20T13:50:24.722Z,0.50
2023-01-20T13:56:24.314Z,0.90
2023-01-20T13:58:53.958Z,1.00
2023-01-20T14:01:22.084Z,0.90
2023-01-20T14:04:02.291Z,0.90
2023-01-20T14:06:32.698Z,0.90
2023-01-20T14:09:01.621Z,0.90
2023-01-20T14:11:31.343Z,0.90
2023-01-20T14:14:02.605Z,0.80
2023-01-20T14:16:31.678Z,0.70
2023-01-20T14:19:01.139Z,0.80
2023-01-20T14:21:30.292Z,0.80
2023-01-20T14:23:58.386Z,0.70
2023-01-20T14:26:28.000Z,0.60
2023-01-20T14:28:56.826Z,0.60
2023-01-20T14:31:35.137Z,0.60
2023-01-20T14:34:04.913Z,0.70
2023-01-20T14:36:33.608Z,0.50
2023-01-20T14:39:04.175Z,0.50
2023-01-20T14:41:34.162Z,0.50
2023-01-20T14:44:03.773Z,0.50
2023-01-20T14:46:33.774Z,0.60
2023-01-20T14:49:02.511Z,0.60
2023-01-20T14:51:30.742Z,0.60
2023-01-20T14:54:18.022Z,0.60
2023-01-20T14:56:48.258Z,0.60
2023-01-20T14:59:19.444Z,0.60
2023-01-20T15:01:53.456Z,0.50
2023-01-20T15:04:22.514Z,0.50
2023-01-20T15:06:54.437Z,0.50
2023-01-20T15:09:30.155Z,0.50
2023-01-20T15:12:16.947Z,0.60
2023-01-20T15:14:57.476Z,0.60
2023-01-20T15:17:26.949Z,0.60
2023-01-20T15:19:55.693Z,0.60
2023-01-20T15:22:24.822Z,0.60
2023-01-20T15:24:52.981Z,0.60
2023-01-20T15:27:25.684Z,0.60
2023-01-20T15:30:13.784Z,0.60
2023-01-20T15:32:45.426Z,0.60
2023-01-20T15:35:14.470Z,0.60
2023-01-20T15:37:42.643Z,0.70
2023-01-20T15:40:15.215Z,0.70
2023-01-20T15:42:43.703Z,0.60
2023-01-20T15:45:13.982Z,0.70
2023-01-20T15:47:42.624Z,0.60
2023-01-20T15:50:15.470Z,0.60
2023-01-20T15:52:44.905Z,0.60
2023-01-20T15:55:13.953Z,0.60
2023-01-20T15:57:42.964Z,0.60
2023-01-20T16:00:16.670Z,0.60
2023-01-20T16:02:46.038Z,0.50
2023-01-20T16:05:17.613Z,0.50
2023-01-20T16:07:47.969Z,0.50
2023-01-20T16:10:18.813Z,0.40
2023-01-20T16:12:48.057Z,0.40
2023-01-20T16:15:16.887Z,0.40
2023-01-20T16:17:45.103Z,0.40
2023-01-20T16:20:21.581Z,0.40
2023-01-20T16:22:49.769Z,0.40
2023-01-20T16:25:18.496Z,0.40
2023-01-20T16:27:46.730Z,0.30
2023-01-20T16:30:19.910Z,0.30
2023-01-20T16:32:48.043Z,0.30
2023-01-20T16:35:16.993Z,0.30
2023-01-20T16:37:48.020Z,0.40
2023-01-20T16:40:18.058Z,0.40
2023-01-20T16:42:46.377Z,0.40
2023-01-20T16:45:22.047Z,0.40
2023-01-20T16:47:50.160Z,0.40
2023-01-20T16:50:19.046Z,0.40
2023-01-20T16:52:48.763Z,0.40
2023-01-20T16:55:16.866Z,0.50
2023-01-20T16:57:45.373Z,0.50
2023-01-20T17:00:18.227Z,0.50
2023-01-20T17:02:50.415Z,0.50
2023-01-20T17:05:22.187Z,0.60
2023-01-20T17:07:51.945Z,0.70
2023-01-20T17:10:20.392Z,0.70
2023-01-20T17:12:49.318Z,0.80
2023-01-20T17:15:17.481Z,0.80
2023-01-20T17:17:48.679Z,0.80
2023-01-20T17:20:17.628Z,0.80
2023-01-20T17:22:46.063Z,0.80
2023-01-20T17:25:17.846Z,0.80
2023-01-20T17:27:46.227Z,0.80
2023-01-20T17:30:15.767Z,0.80
2023-01-20T17:32:46.560Z,0.80
2023-01-20T17:35:15.980Z,0.80
2023-01-20T17:37:44.182Z,0.80
2023-01-20T17:40:13.566Z,0.90
2023-01-20T17:42:44.254Z,0.90
2023-01-20T17:45:12.934Z,0.90
2023-01-20T17:47:40.993Z,0.90
2023-01-20T17:50:09.826Z,1.00
2023-01-20T17:52:37.925Z,1.00
2023-01-20T17:55:06.489Z,1.00
2023-01-20T17:57:34.575Z,1.00
2023-01-20T18:00:08.484Z,0.90
2023-01-20T18:02:36.695Z,0.90
2023-01-20T18:05:05.241Z,0.90
2023-01-20T18:07:33.246Z,0.90
2023-01-20T18:10:02.760Z,0.90
2023-01-20T18:12:30.970Z,1.00
2023-01-20T18:14:59.233Z,0.90
2023-01-20T18:17:34.487Z,0.90
2023-01-20T18:20:02.679Z,1.00
2023-01-20T18:22:31.992Z,0.90
2023-01-20T18:25:00.094Z,0.90
2023-01-20T18:27:28.496Z,0.90
2023-01-20T18:29:56.672Z,0.90
2023-01-20T18:32:25.969Z,0.80
2023-01-20T18:34:55.407Z,0.90
2023-01-20T18:37:24.069Z,0.90
2023-01-20T18:39:52.419Z,0.80
2023-01-20T18:42:20.901Z,0.80
2023-01-20T18:44:48.963Z,0.80
2023-01-20T18:47:17.065Z,0.80
2023-01-20T18:49:45.329Z,0.80
2023-01-20T18:52:14.732Z,0.80
2023-01-20T18:54:42.876Z,0.80
2023-01-20T18:57:10.932Z,0.70
2023-01-20T18:59:39.503Z,0.70
2023-01-20T19:02:07.702Z,0.70
2023-01-20T19:04:36.805Z,0.70
2023-01-20T19:07:05.898Z,0.80
2023-01-20T19:09:35.603Z,0.80
2023-01-20T19:12:03.678Z,0.80
2023-01-20T19:14:31.927Z,0.80
2023-01-20T19:17:00.017Z,0.80
2023-01-20T19:19:28.084Z,0.80
2023-01-20T19:21:56.323Z,0.70
2023-01-20T19:24:28.884Z,0.70
2023-01-20T19:27:00.279Z,0.70
2023-01-20T19:29:29.563Z,0.70
2023-01-20T19:31:57.882Z,0.70
2023-01-20T19:34:26.349Z,0.70
2023-01-20T19:36:54.497Z,0.70
2023-01-20T19:39:22.576Z,0.70
2023-01-20T19:41:50.601Z,0.70
2023-01-20T19:44:20.138Z,0.70
2023-01-20T19:46:48.240Z,0.70
2023-01-20T19:49:16.215Z,0.60
2023-01-20T19:51:44.254Z,0.60
2023-01-20T19:54:13.893Z,0.60
2023-01-20T19:56:41.978Z,0.60
2023-01-20T19:59:12.209Z,0.60
2023-01-20T20:01:41.764Z,0.60
2023-01-20T20:04:10.529Z,0.60
2023-01-20T20:06:39.460Z,0.70
2023-01-20T20:09:08.333Z,0.60
2023-01-20T20:11:36.455Z,0.60
2023-01-20T20:14:05.804Z,0.60
2023-01-20T20:16:34.588Z,0.60
2023-01-20T20:19:05.104Z,0.60
2023-01-20T20:21:34.084Z,0.60
2023-01-20T20:24:02.632Z,0.70
2023-01-20T20:26:31.897Z,0.60
2023-01-20T20:29:00.991Z,0.70
2023-01-20T20:31:29.907Z,0.70
2023-01-20T20:33:59.511Z,0.60
2023-01-20T20:36:30.866Z,0.70
2023-01-20T20:38:59.293Z,0.70
2023-01-20T20:41:29.168Z,0.70
2023-01-20T20:43:58.819Z,0.70
2023-01-20T20:46:27.584Z,0.60
2023-01-20T20:48:56.123Z,0.60
2023-01-20T20:51:24.701Z,0.60
2023-01-20T20:53:56.090Z,0.60
2023-01-20T20:56:24.862Z,0.60
2023-01-20T20:59:01.269Z,0.60
2023-01-20T21:01:31.497Z,0.60
2023-01-20T21:04:00.816Z,0.60
2023-01-20T21:06:29.638Z,0.60
2023-01-20T21:08:59.562Z,0.70
2023-01-20T21:11:28.107Z,0.70
2023-01-20T21:13:56.645Z,0.60
2023-01-20T21:16:25.753Z,0.70
2023-01-20T21:18:55.964Z,0.70
2023-01-20T21:21:24.919Z,0.80
2023-01-20T21:23:54.999Z,0.90
2023-01-20T21:26:28.955Z,0.90
2023-01-20T21:29:00.206Z,0.90
2023-01-20T21:31:28.762Z,0.90
2023-01-20T21:33:58.329Z,1.00
2023-01-20T21:36:27.217Z,0.90
2023-01-20T21:38:55.445Z,0.90
2023-01-20T21:41:28.449Z,0.80
2023-01-20T21:44:14.029Z,0.80
2023-01-20T21:46:42.435Z,0.80
2023-01-20T21:49:28.215Z,0.80
2023-01-20T21:52:14.194Z,0.80
2023-01-20T21:54:44.728Z,0.80
2023-01-20T21:57:15.008Z,0.80
2023-01-20T21:59:43.293Z,0.80
2023-01-20T22:02:13.306Z,0.80
2023-01-20T22:04:41.451Z,0.90
2023-01-20T22:07:10.614Z,0.90
2023-01-20T22:09:38.707Z,0.90
2023-01-20T22:12:07.050Z,0.80
2023-01-20T22:14:37.152Z,0.80
2023-01-20T22:17:05.511Z,0.80
2023-01-20T22:19:34.010Z,0.80
2023-01-20T22:22:02.140Z,0.80
2023-01-20T22:24:31.013Z,0.70
2023-01-20T22:26:59.390Z,0.70
2023-01-20T22:29:27.905Z,0.70
2023-01-20T22:31:59.374Z,0.70
2023-01-20T22:34:28.060Z,0.70
2023-01-20T22:36:57.565Z,0.80
2023-01-20T22:39:26.104Z,0.70
2023-01-20T22:41:54.166Z,0.70
2023-01-20T22:44:22.299Z,0.70
2023-01-20T22:46:50.419Z,0.70
2023-01-20T22:49:20.374Z,0.70
2023-01-20T22:51:48.427Z,0.70
2023-01-20T22:54:17.140Z,0.70
2023-01-20T22:56:45.213Z,0.70
2023-01-20T22:59:13.555Z,0.70
2023-01-20T23:01:42.109Z,0.70
2023-01-20T23:04:10.340Z,0.60
2023-01-20T23:06:40.213Z,0.60
2023-01-20T23:09:09.474Z,0.60
2023-01-20T23:11:40.353Z,0.50
2023-01-20T23:14:10.518Z,0.60
2023-01-20T23:16:39.123Z,0.60
2023-01-20T23:19:07.584Z,0.60
2023-01-20T23:21:35.929Z,0.60
2023-01-20T23:24:05.906Z,0.70
2023-01-20T23:26:34.306Z,0.70
2023-01-20T23:29:02.915Z,0.70
2023-01-20T23:31:33.411Z,0.70
2023-01-20T23:34:02.111Z,0.80
2023-01-20T23:36:30.110Z,0.70
2023-01-20T23:38:58.760Z,0.80
2023-01-20T23:41:28.201Z,0.80
2023-01-20T23:43:56.747Z,0.70
2023-01-20T23:46:24.769Z,0.70
2023-01-20T23:48:53.311Z,0.60
2023-01-20T23:51:21.544Z,0.60
2023-01-20T23:53:49.835Z,0.50
2023-01-20T23:56:19.438Z,0.50
2023-01-20T23:58:48.992Z,0.50
